createdAt,value
2023-01-15T00:00:25.649Z,97.33
2023-01-15T00:01:25.633Z,98.72
2023-01-15T00:02:25.629Z,99.30
2023-01-15T00:03:25.606Z,99.99
2023-01-15T00:04:25.554Z,99.99
2023-01-15T00:05:25.542Z,99.99
2023-01-15T00:06:25.513Z,99.99
2023-01-15T00:07:25.498Z,99.99
2023-01-15T00:08:25.484Z,99.99
2023-01-15T00:09:25.521Z,99.99
2023-01-15T00:10:25.440Z,99.99
2023-01-15T00:11:25.419Z,99.99
2023-01-15T00:12:25.408Z,99.99
2023-01-15T00:13:25.378Z,99.99
2023-01-15T00:14:25.362Z,99.99
2023-01-15T00:15:25.368Z,99.99
2023-01-15T00:16:25.315Z,99.99
2023-01-15T00:17:25.301Z,99.99
2023-01-15T00:18:25.296Z,99.99
2023-01-15T00:19:25.264Z,99.99
2023-01-15T00:20:25.271Z,99.99
2023-01-15T00:21:25.219Z,99.99
2023-01-15T00:22:25.262Z,98.97
2023-01-15T00:23:25.183Z,99.39
2023-01-15T00:24:25.158Z,99.18
2023-01-15T00:25:25.152Z,98.05
2023-01-15T00:26:25.117Z,97.38
2023-01-15T00:27:25.107Z,97.53
2023-01-15T00:28:25.164Z,97.84
2023-01-15T00:29:25.061Z,98.87
2023-01-15T00:30:25.045Z,98.25
2023-01-15T00:31:25.038Z,98.15
2023-01-15T00:32:25.007Z,98.56
2023-01-15T00:33:24.986Z,98.71
2023-01-15T00:34:24.968Z,98.71
2023-01-15T00:35:24.945Z,97.94
2023-01-15T00:36:24.923Z,97.94
2023-01-15T00:37:24.899Z,97.94
2023-01-15T00:38:24.920Z,98.97
2023-01-15T00:39:24.879Z,99.33
2023-01-15T00:40:24.896Z,99.54
2023-01-15T00:41:24.829Z,98.40
2023-01-15T00:42:24.803Z,98.97
2023-01-15T00:43:24.797Z,96.80
2023-01-15T00:44:24.772Z,95.46
2023-01-15T00:45:24.757Z,96.08
2023-01-15T00:46:24.757Z,97.22
2023-01-15T00:47:24.704Z,98.35
2023-01-15T00:48:24.679Z,98.77
2023-01-15T00:49:24.669Z,98.35
2023-01-15T00:50:24.639Z,97.74
2023-01-15T00:51:24.677Z,98.25
2023-01-15T00:52:24.603Z,99.02
2023-01-15T00:53:24.583Z,95.15
2023-01-15T00:54:24.564Z,96.70
2023-01-15T00:55:24.553Z,96.39
2023-01-15T00:56:24.518Z,95.04
2023-01-15T00:57:24.532Z,94.01
2023-01-15T00:58:24.482Z,94.22
2023-01-15T00:59:24.468Z,93.45
2023-01-15T01:00:24.491Z,94.84
2023-01-15T01:01:24.586Z,94.32
2023-01-15T01:02:24.492Z,93.29
2023-01-15T01:03:24.381Z,94.84
2023-01-15T01:04:24.386Z,92.15
2023-01-15T01:05:24.348Z,92.11
2023-01-15T01:06:24.355Z,91.90
2023-01-15T01:07:24.306Z,93.35
2023-01-15T01:08:24.303Z,93.91
2023-01-15T01:09:24.265Z,93.60
2023-01-15T01:10:24.243Z,94.94
2023-01-15T01:11:24.237Z,94.94
2023-01-15T01:12:24.202Z,93.91
2023-01-15T01:13:24.181Z,94.53
2023-01-15T01:14:24.165Z,93.49
2023-01-15T01:15:24.194Z,94.22
2023-01-15T01:16:24.172Z,94.22
2023-01-15T01:17:24.115Z,92.36
2023-01-15T01:18:24.076Z,91.80
2023-01-15T01:19:24.067Z,91.53
2023-01-15T01:20:24.035Z,90.19
2023-01-15T01:21:24.053Z,88.80
2023-01-15T01:22:24.011Z,87.76
2023-01-15T01:23:23.986Z,88.14
2023-01-15T01:24:23.963Z,87.15
2023-01-15T01:25:23.972Z,87.97
2023-01-15T01:26:23.934Z,89.01
2023-01-15T01:27:23.896Z,88.59
2023-01-15T01:28:23.876Z,89.32
2023-01-15T01:29:23.907Z,89.01
2023-01-15T01:30:23.872Z,87.15
2023-01-15T01:31:23.919Z,85.24
2023-01-15T01:32:23.728Z,84.63
2023-01-15T01:33:23.779Z,84.21
2023-01-15T01:34:23.756Z,80.97
2023-01-15T01:35:23.736Z,78.25
2023-01-15T01:36:23.748Z,80.52
2023-01-15T01:37:23.693Z,80.00
2023-01-15T01:38:23.676Z,80.76
2023-01-15T01:39:23.661Z,80.87
2023-01-15T01:40:23.633Z,79.63
2023-01-15T01:41:23.621Z,78.80
2023-01-15T01:42:23.599Z,78.91
2023-01-15T01:43:23.578Z,78.66
2023-01-15T01:44:23.556Z,78.87
2023-01-15T01:45:23.576Z,78.45
2023-01-15T01:46:23.515Z,78.87
2023-01-15T01:47:23.501Z,80.66
2023-01-15T01:48:23.491Z,81.59
2023-01-15T01:49:23.465Z,81.70
2023-01-15T01:50:23.489Z,82.45
2023-01-15T01:51:23.416Z,84.00
2023-01-15T01:52:23.400Z,84.00
2023-01-15T01:53:23.380Z,84.52
2023-01-15T01:54:23.354Z,84.15
2023-01-15T01:55:23.356Z,84.52
2023-01-15T01:56:23.370Z,84.66
2023-01-15T01:57:23.292Z,84.83
2023-01-15T01:58:23.278Z,84.11
2023-01-15T01:59:23.258Z,85.35
2023-01-15T02:00:23.258Z,86.21
2023-01-15T02:01:23.302Z,86.18
2023-01-15T02:02:23.257Z,87.97
2023-01-15T02:03:23.193Z,89.11
2023-01-15T02:04:23.155Z,89.77
2023-01-15T02:05:23.137Z,88.28
2023-01-15T02:06:23.123Z,88.59
2023-01-15T02:07:23.139Z,89.01
2023-01-15T02:08:23.081Z,89.62
2023-01-15T02:09:23.056Z,89.22
2023-01-15T02:10:23.044Z,90.87
2023-01-15T02:11:23.029Z,91.49
2023-01-15T02:12:23.005Z,92.05
2023-01-15T02:13:23.010Z,92.21
2023-01-15T02:14:22.965Z,91.94
2023-01-15T02:15:22.942Z,92.67
2023-01-15T02:16:22.977Z,92.05
2023-01-15T02:17:22.902Z,92.46
2023-01-15T02:18:22.875Z,93.60
2023-01-15T02:19:22.865Z,93.49
2023-01-15T02:20:22.849Z,93.49
2023-01-15T02:21:22.848Z,94.32
2023-01-15T02:22:22.800Z,94.68
2023-01-15T02:23:22.792Z,94.57
2023-01-15T02:24:22.766Z,94.22
2023-01-15T02:25:22.796Z,94.32
2023-01-15T02:26:22.745Z,94.12
2023-01-15T02:27:22.704Z,94.84
2023-01-15T02:28:22.682Z,95.40
2023-01-15T02:29:22.667Z,96.02
2023-01-15T02:30:22.646Z,95.81
2023-01-15T02:31:22.752Z,95.81
2023-01-15T02:32:22.601Z,95.71
2023-01-15T02:33:22.587Z,95.98
2023-01-15T02:34:22.563Z,95.98
2023-01-15T02:35:22.549Z,95.92
2023-01-15T02:36:22.538Z,95.92
2023-01-15T02:37:22.501Z,96.64
2023-01-15T02:38:22.492Z,96.33
2023-01-15T02:39:22.468Z,96.02
2023-01-15T02:40:22.449Z,96.08
2023-01-15T02:41:22.447Z,95.67
2023-01-15T02:42:22.403Z,95.71
2023-01-15T02:43:22.384Z,96.44
2023-01-15T02:44:22.367Z,96.75
2023-01-15T02:45:22.343Z,96.44
2023-01-15T02:46:22.320Z,96.02
2023-01-15T02:47:22.340Z,95.98
2023-01-15T02:48:22.299Z,95.77
2023-01-15T02:49:22.268Z,95.56
2023-01-15T02:50:22.244Z,96.29
2023-01-15T02:51:22.269Z,95.25
2023-01-15T02:52:22.203Z,94.94
2023-01-15T02:53:22.213Z,95.04
2023-01-15T02:54:22.167Z,95.15
2023-01-15T02:55:22.145Z,95.98
2023-01-15T02:56:22.124Z,95.87
2023-01-15T02:57:22.287Z,96.19
2023-01-15T02:58:22.085Z,96.08
2023-01-15T02:59:22.085Z,95.46
2023-01-15T03:00:22.056Z,97.01
2023-01-15T03:01:22.100Z,96.80
2023-01-15T03:02:22.043Z,95.77
2023-01-15T03:03:22.060Z,96.08
2023-01-15T03:04:21.969Z,95.31
2023-01-15T03:05:21.944Z,96.29
2023-01-15T03:06:21.938Z,96.19
2023-01-15T03:07:21.907Z,96.08
2023-01-15T03:08:21.890Z,95.98
2023-01-15T03:09:21.869Z,95.67
2023-01-15T03:10:21.868Z,95.77
2023-01-15T03:11:21.825Z,96.19
2023-01-15T03:12:21.816Z,96.29
2023-01-15T03:13:21.800Z,95.98
2023-01-15T03:14:21.817Z,95.56
2023-01-15T03:15:21.747Z,96.19
2023-01-15T03:16:21.774Z,96.91
2023-01-15T03:17:21.713Z,97.53
2023-01-15T03:18:21.699Z,96.70
2023-01-15T03:19:21.698Z,97.01
2023-01-15T03:20:21.651Z,96.19
2023-01-15T03:21:21.683Z,96.91
2023-01-15T03:22:21.615Z,96.49
2023-01-15T03:23:21.589Z,96.64
2023-01-15T03:24:21.567Z,96.08
2023-01-15T03:25:21.550Z,95.67
2023-01-15T03:26:21.539Z,96.19
2023-01-15T03:27:21.514Z,97.32
2023-01-15T03:28:21.486Z,96.59
2023-01-15T03:29:21.473Z,97.63
2023-01-15T03:30:21.448Z,97.16
2023-01-15T03:31:21.431Z,97.57
2023-01-15T03:32:21.470Z,97.99
2023-01-15T03:33:21.389Z,96.85
2023-01-15T03:34:21.370Z,97.01
2023-01-15T03:35:21.362Z,96.19
2023-01-15T03:36:21.336Z,96.39
2023-01-15T03:37:21.314Z,96.33
2023-01-15T03:38:21.337Z,96.54
2023-01-15T03:39:21.272Z,97.57
2023-01-15T03:40:21.251Z,96.75
2023-01-15T03:41:21.234Z,97.47
2023-01-15T03:42:21.210Z,97.57
2023-01-15T03:43:21.194Z,97.16
2023-01-15T03:44:21.241Z,96.85
2023-01-15T03:45:21.150Z,97.06
2023-01-15T03:46:21.163Z,96.85
2023-01-15T03:47:21.118Z,96.59
2023-01-15T03:48:21.119Z,97.26
2023-01-15T03:49:21.070Z,96.85
2023-01-15T03:50:21.057Z,96.85
2023-01-15T03:51:21.038Z,96.75
2023-01-15T03:52:21.019Z,96.75
2023-01-15T03:53:21.023Z,96.85
2023-01-15T03:54:20.988Z,97.36
2023-01-15T03:55:21.011Z,97.57
2023-01-15T03:56:20.931Z,98.61
2023-01-15T03:57:20.913Z,97.57
2023-01-15T03:58:20.906Z,97.26
2023-01-15T03:59:20.880Z,97.26
2023-01-15T04:00:20.873Z,96.95
2023-01-15T04:01:20.993Z,96.85
2023-01-15T04:02:20.882Z,96.54
2023-01-15T04:03:20.803Z,96.44
2023-01-15T04:04:20.968Z,96.44
2023-01-15T04:05:20.765Z,96.23
2023-01-15T04:06:20.799Z,95.61
2023-01-15T04:07:20.716Z,95.56
2023-01-15T04:08:20.704Z,95.50
2023-01-15T04:09:20.675Z,96.02
2023-01-15T04:10:20.658Z,96.33
2023-01-15T04:11:20.634Z,96.29
2023-01-15T04:12:20.673Z,95.92
2023-01-15T04:13:20.593Z,95.87
2023-01-15T04:14:20.578Z,95.92
2023-01-15T04:15:20.569Z,95.87
2023-01-15T04:16:20.585Z,95.92
2023-01-15T04:17:20.524Z,95.67
2023-01-15T04:18:20.504Z,95.81
2023-01-15T04:19:20.480Z,95.92
2023-01-15T04:20:20.455Z,95.36
2023-01-15T04:21:20.435Z,96.08
2023-01-15T04:22:20.448Z,94.94
2023-01-15T04:23:20.397Z,95.36
2023-01-15T04:24:20.375Z,95.04
2023-01-15T04:25:20.405Z,94.59
2023-01-15T04:26:20.335Z,94.53
2023-01-15T04:27:20.348Z,94.73
2023-01-15T04:28:20.307Z,94.22
2023-01-15T04:29:20.277Z,93.97
2023-01-15T04:30:20.261Z,94.22
2023-01-15T04:31:20.312Z,93.80
2023-01-15T04:32:20.262Z,94.01
2023-01-15T04:33:20.197Z,94.22
2023-01-15T04:34:20.178Z,94.12
2023-01-15T04:35:20.169Z,93.80
2023-01-15T04:36:20.138Z,94.07
2023-01-15T04:37:20.119Z,93.97
2023-01-15T04:38:20.522Z,93.80
2023-01-15T04:39:20.084Z,94.43
2023-01-15T04:40:20.059Z,94.22
2023-01-15T04:41:20.041Z,93.97
2023-01-15T04:42:20.022Z,93.29
2023-01-15T04:43:20.080Z,94.12
2023-01-15T04:44:19.983Z,92.93
2023-01-15T04:45:19.961Z,93.45
2023-01-15T04:46:20.000Z,93.91
2023-01-15T04:47:19.924Z,94.12
2023-01-15T04:48:19.903Z,94.01
2023-01-15T04:49:19.949Z,94.12
2023-01-15T04:50:19.869Z,93.49
2023-01-15T04:51:19.841Z,94.01
2023-01-15T04:52:19.836Z,93.24
2023-01-15T04:53:19.802Z,93.91
2023-01-15T04:54:19.787Z,94.32
2023-01-15T04:55:19.790Z,93.80
2023-01-15T04:56:19.772Z,93.70
2023-01-15T04:57:19.722Z,93.70
2023-01-15T04:58:19.700Z,94.22
2023-01-15T04:59:19.683Z,93.70
2023-01-15T05:00:19.726Z,93.60
2023-01-15T05:01:19.734Z,92.97
2023-01-15T05:02:19.754Z,92.63
2023-01-15T05:03:19.608Z,93.14
2023-01-15T05:04:19.606Z,93.49
2023-01-15T05:05:19.561Z,93.29
2023-01-15T05:06:19.564Z,92.83
2023-01-15T05:07:19.524Z,92.52
2023-01-15T05:08:19.509Z,93.29
2023-01-15T05:09:19.488Z,92.72
2023-01-15T05:10:19.466Z,92.42
2023-01-15T05:11:19.475Z,92.42
2023-01-15T05:12:19.453Z,92.77
2023-01-15T05:13:19.401Z,92.36
2023-01-15T05:14:19.395Z,92.97
2023-01-15T05:15:19.367Z,91.90
2023-01-15T05:16:19.373Z,91.59
2023-01-15T05:17:19.326Z,91.90
2023-01-15T05:18:19.381Z,91.49
2023-01-15T05:19:19.286Z,91.94
2023-01-15T05:20:19.266Z,91.84
2023-01-15T05:21:19.276Z,92.11
2023-01-15T05:22:19.279Z,92.00
2023-01-15T05:23:19.214Z,92.00
2023-01-15T05:24:19.197Z,92.77
2023-01-15T05:25:19.173Z,92.00
2023-01-15T05:26:19.146Z,91.49
2023-01-15T05:27:19.127Z,91.63
2023-01-15T05:28:19.109Z,92.15
2023-01-15T05:29:19.096Z,92.00
2023-01-15T05:30:19.061Z,92.21
2023-01-15T05:31:19.100Z,92.46
2023-01-15T05:32:19.027Z,91.90
2023-01-15T05:33:19.005Z,91.90
2023-01-15T05:34:18.989Z,91.63
2023-01-15T05:35:18.970Z,91.42
2023-01-15T05:36:18.999Z,91.38
2023-01-15T05:37:18.940Z,91.90
2023-01-15T05:38:18.930Z,91.59
2023-01-15T05:39:18.893Z,90.77
2023-01-15T05:40:18.875Z,91.94
2023-01-15T05:41:18.844Z,90.56
2023-01-15T05:42:18.837Z,90.56
2023-01-15T05:43:18.819Z,91.90
2023-01-15T05:44:18.788Z,90.87
2023-01-15T05:45:18.778Z,90.45
2023-01-15T05:46:18.785Z,90.25
2023-01-15T05:47:18.757Z,90.45
2023-01-15T05:48:18.706Z,91.28
2023-01-15T05:49:18.726Z,91.07
2023-01-15T05:50:18.669Z,91.69
2023-01-15T05:51:18.666Z,91.53
2023-01-15T05:52:18.655Z,90.77
2023-01-15T05:53:18.610Z,90.87
2023-01-15T05:54:18.598Z,91.94
2023-01-15T05:55:18.575Z,91.59
2023-01-15T05:56:18.597Z,91.49
2023-01-15T05:57:18.528Z,91.28
2023-01-15T05:58:18.539Z,91.53
2023-01-15T05:59:18.487Z,91.90
2023-01-15T06:00:18.506Z,91.17
2023-01-15T06:01:18.458Z,91.59
2023-01-15T06:02:18.510Z,91.90
2023-01-15T06:03:18.447Z,91.69
2023-01-15T06:04:18.410Z,91.59
2023-01-15T06:05:18.387Z,91.69
2023-01-15T06:06:18.411Z,91.59
2023-01-15T06:07:18.360Z,91.90
2023-01-15T06:08:18.308Z,91.80
2023-01-15T06:09:18.291Z,91.38
2023-01-15T06:10:18.265Z,92.25
2023-01-15T06:11:18.260Z,92.83
2023-01-15T06:12:18.232Z,92.67
2023-01-15T06:13:18.212Z,92.77
2023-01-15T06:14:18.205Z,92.52
2023-01-15T06:15:18.213Z,92.46
2023-01-15T06:16:18.204Z,91.59
2023-01-15T06:17:18.132Z,91.49
2023-01-15T06:18:18.116Z,90.45
2023-01-15T06:19:18.096Z,91.49
2023-01-15T06:20:18.102Z,90.97
2023-01-15T06:21:18.088Z,91.80
2023-01-15T06:22:18.036Z,91.38
2023-01-15T06:23:18.023Z,91.49
2023-01-15T06:24:18.008Z,91.90
2023-01-15T06:25:17.988Z,91.07
2023-01-15T06:26:17.974Z,91.59
2023-01-15T06:27:17.935Z,91.80
2023-01-15T06:28:17.909Z,91.59
2023-01-15T06:29:17.902Z,92.15
2023-01-15T06:30:17.871Z,92.46
2023-01-15T06:31:17.877Z,92.36
2023-01-15T06:32:17.859Z,91.69
2023-01-15T06:33:17.812Z,92.21
2023-01-15T06:34:17.796Z,92.15
2023-01-15T06:35:17.779Z,92.15
2023-01-15T06:36:17.759Z,91.84
2023-01-15T06:37:17.799Z,92.46
2023-01-15T06:38:17.723Z,92.11
2023-01-15T06:39:17.697Z,91.90
2023-01-15T06:40:17.676Z,91.38
2023-01-15T06:41:17.677Z,92.36
2023-01-15T06:42:17.645Z,92.25
2023-01-15T06:43:17.650Z,92.15
2023-01-15T06:44:17.597Z,92.00
2023-01-15T06:45:17.576Z,92.00
2023-01-15T06:46:17.612Z,91.84
2023-01-15T06:47:17.543Z,92.15
2023-01-15T06:48:17.549Z,91.94
2023-01-15T06:49:17.497Z,92.77
2023-01-15T06:50:17.473Z,92.57
2023-01-15T06:51:17.455Z,93.18
2023-01-15T06:52:17.436Z,93.08
2023-01-15T06:53:17.476Z,93.91
2023-01-15T06:54:17.394Z,94.47
2023-01-15T06:55:17.389Z,93.85
2023-01-15T06:56:17.356Z,93.29
2023-01-15T06:57:17.341Z,93.08
2023-01-15T06:58:17.325Z,93.49
2023-01-15T06:59:17.342Z,93.91
2023-01-15T07:00:17.281Z,94.32
2023-01-15T07:01:17.399Z,94.22
2023-01-15T07:02:17.247Z,94.12
2023-01-15T07:03:17.242Z,93.39
2023-01-15T07:04:17.220Z,93.70
2023-01-15T07:05:17.245Z,93.91
2023-01-15T07:06:17.157Z,94.12
2023-01-15T07:07:17.147Z,94.43
2023-01-15T07:08:17.125Z,94.26
2023-01-15T07:09:17.098Z,93.80
2023-01-15T07:10:17.079Z,93.80
2023-01-15T07:11:17.091Z,94.06
2023-01-15T07:12:17.040Z,93.49
2023-01-15T07:13:17.035Z,93.70
2023-01-15T07:14:16.997Z,94.16
2023-01-15T07:15:16.979Z,93.18
2023-01-15T07:16:17.025Z,93.70
2023-01-15T07:17:16.946Z,93.39
2023-01-15T07:18:16.927Z,93.29
2023-01-15T07:19:16.913Z,93.70
2023-01-15T07:20:16.881Z,93.60
2023-01-15T07:21:16.862Z,93.39
2023-01-15T07:22:17.179Z,93.08
2023-01-15T07:23:17.031Z,93.49
2023-01-15T07:24:16.815Z,93.29
2023-01-15T07:25:16.777Z,93.39
2023-01-15T07:26:16.768Z,93.39
2023-01-15T07:27:16.770Z,92.67
2023-01-15T07:28:16.746Z,93.49
2023-01-15T07:29:16.711Z,93.91
2023-01-15T07:30:16.685Z,92.87
2023-01-15T07:31:16.687Z,93.29
2023-01-15T07:32:16.689Z,93.64
2023-01-15T07:33:16.645Z,93.08
2023-01-15T07:34:16.634Z,92.15
2023-01-15T07:35:16.581Z,91.84
2023-01-15T07:36:16.585Z,91.59
2023-01-15T07:37:16.540Z,91.69
2023-01-15T07:38:16.550Z,91.59
2023-01-15T07:39:16.522Z,91.69
2023-01-15T07:40:16.555Z,91.74
2023-01-15T07:41:16.465Z,92.67
2023-01-15T07:42:16.445Z,92.25
2023-01-15T07:43:16.438Z,92.36
2023-01-15T07:44:16.408Z,91.69
2023-01-15T07:45:16.392Z,92.36
2023-01-15T07:46:16.401Z,91.69
2023-01-15T07:47:16.373Z,92.36
2023-01-15T07:48:16.336Z,92.15
2023-01-15T07:49:16.307Z,91.69
2023-01-15T07:50:16.311Z,91.59
2023-01-15T07:51:16.268Z,91.90
2023-01-15T07:52:16.298Z,92.25
2023-01-15T07:53:16.223Z,92.67
2023-01-15T07:54:16.205Z,93.39
2023-01-15T07:55:16.205Z,92.67
2023-01-15T07:56:16.166Z,92.97
2023-01-15T07:57:16.143Z,92.21
2023-01-15T07:58:16.173Z,92.21
2023-01-15T07:59:16.106Z,91.69
2023-01-15T08:00:16.123Z,91.80
2023-01-15T08:01:16.241Z,92.42
2023-01-15T08:02:16.078Z,92.83
2023-01-15T08:03:16.052Z,92.97
2023-01-15T08:04:16.051Z,92.15
2023-01-15T08:05:15.990Z,91.59
2023-01-15T08:06:15.986Z,91.49
2023-01-15T08:07:15.956Z,91.94
2023-01-15T08:08:15.952Z,91.90
2023-01-15T08:09:15.933Z,92.25
2023-01-15T08:10:15.891Z,91.69
2023-01-15T08:11:15.882Z,91.38
2023-01-15T08:12:15.859Z,91.38
2023-01-15T08:13:15.827Z,91.63
2023-01-15T08:14:15.840Z,92.21
2023-01-15T08:15:15.787Z,92.00
2023-01-15T08:16:15.812Z,91.90
2023-01-15T08:17:15.745Z,92.32
2023-01-15T08:18:15.745Z,91.63
2023-01-15T08:19:15.709Z,91.49
2023-01-15T08:20:15.720Z,91.28
2023-01-15T08:21:15.731Z,91.59
2023-01-15T08:22:15.649Z,90.97
2023-01-15T08:23:15.664Z,91.49
2023-01-15T08:24:15.625Z,91.80
2023-01-15T08:25:15.588Z,91.90
2023-01-15T08:26:15.607Z,91.49
2023-01-15T08:27:15.553Z,90.66
2023-01-15T08:28:15.556Z,90.35
2023-01-15T08:29:15.513Z,90.66
2023-01-15T08:30:15.493Z,91.28
2023-01-15T08:31:15.495Z,90.25
2023-01-15T08:32:15.464Z,90.25
2023-01-15T08:33:15.475Z,90.45
2023-01-15T08:34:15.416Z,90.35
2023-01-15T08:35:15.394Z,90.87
2023-01-15T08:36:15.377Z,90.45
2023-01-15T08:37:15.358Z,91.49
2023-01-15T08:38:15.331Z,90.80
2023-01-15T08:39:15.362Z,90.45
2023-01-15T08:40:15.299Z,89.83
2023-01-15T08:41:15.279Z,89.73
2023-01-15T08:42:15.255Z,89.94
2023-01-15T08:43:15.238Z,89.73
2023-01-15T08:44:15.214Z,88.90
2023-01-15T08:45:15.235Z,88.55
2023-01-15T08:46:15.217Z,88.70
2023-01-15T08:47:15.158Z,88.24
2023-01-15T08:48:15.248Z,88.55
2023-01-15T08:49:15.113Z,89.83
2023-01-15T08:50:15.107Z,89.73
2023-01-15T08:51:15.104Z,88.76
2023-01-15T08:52:15.061Z,88.34
2023-01-15T08:53:15.037Z,88.28
2023-01-15T08:54:15.021Z,88.65
2023-01-15T08:55:14.996Z,88.65
2023-01-15T08:56:15.023Z,88.55
2023-01-15T08:57:14.956Z,87.87
2023-01-15T08:58:14.964Z,87.46
2023-01-15T08:59:14.915Z,88.39
2023-01-15T09:00:17.273Z,88.14
2023-01-15T09:01:14.920Z,89.11
2023-01-15T09:02:14.859Z,90.04
2023-01-15T09:03:14.835Z,89.22
2023-01-15T09:04:14.828Z,89.22
2023-01-15T09:05:14.818Z,89.73
2023-01-15T09:06:14.813Z,88.90
2023-01-15T09:07:14.809Z,89.73
2023-01-15T09:08:14.742Z,88.39
2023-01-15T09:09:14.721Z,89.62
2023-01-15T09:10:14.724Z,89.11
2023-01-15T09:11:14.684Z,87.87
2023-01-15T09:12:14.665Z,87.87
2023-01-15T09:13:14.637Z,86.42
2023-01-15T09:14:58.841Z,87.15
2023-01-15T09:15:14.609Z,86.83
2023-01-15T09:16:14.606Z,85.49
2023-01-15T09:17:14.560Z,86.73
2023-01-15T09:18:14.550Z,86.63
2023-01-15T09:19:14.516Z,85.28
2023-01-15T09:20:14.542Z,86.11
2023-01-15T09:21:14.499Z,84.97
2023-01-15T09:22:14.465Z,85.49
2023-01-15T09:23:14.439Z,86.52
2023-01-15T09:24:14.427Z,86.01
2023-01-15T09:25:14.396Z,86.83
2023-01-15T09:26:14.411Z,87.25
2023-01-15T09:27:14.370Z,86.01
2023-01-15T09:28:14.359Z,84.97
2023-01-15T09:29:14.317Z,84.77
2023-01-15T09:30:14.355Z,85.39
2023-01-15T09:31:14.338Z,84.97
2023-01-15T09:32:14.259Z,85.60
2023-01-15T09:33:14.238Z,84.66
2023-01-15T09:34:14.221Z,85.18
2023-01-15T09:35:14.202Z,84.87
2023-01-15T09:36:14.256Z,85.60
2023-01-15T09:37:14.167Z,84.77
2023-01-15T09:38:14.146Z,84.05
2023-01-15T09:39:14.123Z,85.39
2023-01-15T09:40:14.103Z,83.73
2023-01-15T09:41:14.087Z,84.11
2023-01-15T09:42:14.079Z,84.05
2023-01-15T09:43:14.048Z,83.70
2023-01-15T09:44:14.023Z,83.53
2023-01-15T09:45:13.999Z,83.84
2023-01-15T09:46:14.136Z,82.45
2023-01-15T09:47:13.987Z,83.94
2023-01-15T09:48:13.976Z,83.84
2023-01-15T09:49:13.918Z,84.56
2023-01-15T09:50:13.909Z,84.11
2023-01-15T09:51:13.877Z,84.00
2023-01-15T09:52:13.870Z,83.84
2023-01-15T09:53:13.881Z,83.28
2023-01-15T09:54:13.824Z,82.56
2023-01-15T09:55:13.806Z,83.90
2023-01-15T09:56:13.782Z,84.00
2023-01-15T09:57:13.765Z,83.76
2023-01-15T09:58:13.752Z,83.86
2023-01-15T09:59:13.773Z,83.86
2023-01-15T10:00:13.707Z,82.66
2023-01-15T10:01:13.722Z,82.21
2023-01-15T10:02:13.671Z,83.76
2023-01-15T10:03:13.713Z,83.76
2023-01-15T10:04:13.699Z,83.14
2023-01-15T10:05:13.633Z,82.52
2023-01-15T10:06:13.585Z,82.25
2023-01-15T10:07:13.561Z,82.62
2023-01-15T10:08:13.545Z,82.10
2023-01-15T10:09:13.549Z,82.00
2023-01-15T10:10:13.513Z,81.38
2023-01-15T10:11:13.482Z,81.28
2023-01-15T10:12:13.467Z,80.97
2023-01-15T10:13:13.445Z,82.59
2023-01-15T10:14:13.583Z,81.14
2023-01-15T10:15:13.420Z,80.52
2023-01-15T10:16:13.426Z,80.62
2023-01-15T10:17:13.415Z,78.77
2023-01-15T10:18:13.373Z,81.24
2023-01-15T10:19:13.327Z,79.38
2023-01-15T10:20:13.312Z,78.97
2023-01-15T10:21:13.294Z,78.63
2023-01-15T10:22:13.270Z,78.35
2023-01-15T10:23:13.277Z,78.94
2023-01-15T10:24:13.232Z,80.79
2023-01-15T10:25:13.222Z,81.35
2023-01-15T10:26:13.192Z,80.28
2023-01-15T10:27:13.192Z,79.80
2023-01-15T10:28:13.162Z,79.28
2023-01-15T10:29:13.131Z,79.28
2023-01-15T10:30:13.132Z,77.73
2023-01-15T10:31:13.151Z,78.94
2023-01-15T10:32:13.079Z,79.28
2023-01-15T10:33:13.092Z,79.14
2023-01-15T10:34:13.035Z,78.97
2023-01-15T10:35:13.015Z,79.35
2023-01-15T10:36:12.997Z,80.38
2023-01-15T10:37:12.986Z,80.48
2023-01-15T10:38:12.961Z,79.04
2023-01-15T10:39:13.002Z,78.01
2023-01-15T10:40:12.934Z,78.83
2023-01-15T10:41:12.896Z,78.01
2023-01-15T10:42:12.878Z,79.04
2023-01-15T10:43:12.863Z,79.14
2023-01-15T10:44:12.856Z,77.59
2023-01-15T10:45:12.845Z,78.21
2023-01-15T10:46:12.851Z,78.35
2023-01-15T10:47:12.796Z,77.22
2023-01-15T10:48:12.772Z,74.50
2023-01-15T10:49:12.742Z,75.63
2023-01-15T10:50:12.736Z,76.50
2023-01-15T10:51:12.715Z,77.39
2023-01-15T10:52:12.685Z,77.18
2023-01-15T10:53:12.662Z,76.18
2023-01-15T10:54:12.648Z,77.08
2023-01-15T10:55:12.659Z,78.11
2023-01-15T10:56:12.621Z,76.87
2023-01-15T10:57:12.603Z,75.84
2023-01-15T10:58:12.576Z,75.53
2023-01-15T10:59:12.554Z,77.08
2023-01-15T11:00:12.545Z,75.84
2023-01-15T11:01:12.601Z,76.67
2023-01-15T11:02:12.581Z,74.71
2023-01-15T11:03:12.532Z,76.04
2023-01-15T11:04:12.452Z,75.22
2023-01-15T11:05:12.435Z,76.63
2023-01-15T11:06:12.418Z,74.91
2023-01-15T11:07:12.395Z,75.18
2023-01-15T11:08:58.279Z,75.49
2023-01-15T11:09:12.525Z,75.39
2023-01-15T11:10:12.374Z,74.05
2023-01-15T11:11:12.317Z,76.12
2023-01-15T11:12:12.317Z,75.91
2023-01-15T11:13:12.275Z,75.60
2023-01-15T11:14:12.271Z,74.40
2023-01-15T11:15:12.277Z,75.22
2023-01-15T11:16:12.328Z,75.63
2023-01-15T11:17:12.240Z,75.53
2023-01-15T11:18:12.228Z,75.74
2023-01-15T11:19:12.163Z,74.95
2023-01-15T11:20:12.141Z,75.53
2023-01-15T11:21:12.126Z,76.18
2023-01-15T11:22:12.107Z,76.56
2023-01-15T11:23:12.112Z,76.77
2023-01-15T11:24:12.064Z,75.53
2023-01-15T11:25:12.059Z,76.25
2023-01-15T11:26:12.041Z,76.46
2023-01-15T11:27:12.008Z,76.50
2023-01-15T11:28:12.024Z,76.87
2023-01-15T11:29:11.985Z,76.60
2023-01-15T11:30:11.954Z,77.11
2023-01-15T11:31:11.963Z,75.46
2023-01-15T11:32:11.913Z,76.90
2023-01-15T11:33:11.900Z,75.87
2023-01-15T11:34:11.898Z,76.29
2023-01-15T11:35:11.875Z,75.67
2023-01-15T11:36:11.851Z,75.57
2023-01-15T11:37:11.829Z,75.67
2023-01-15T11:38:11.823Z,77.32
2023-01-15T11:39:11.779Z,77.32
2023-01-15T11:40:11.753Z,77.11
2023-01-15T11:41:11.757Z,77.94
2023-01-15T11:42:11.717Z,76.08
2023-01-15T11:43:11.727Z,76.39
2023-01-15T11:44:11.678Z,77.94
2023-01-15T11:45:11.665Z,76.29
2023-01-15T11:46:11.706Z,75.46
2023-01-15T11:47:11.622Z,77.01
2023-01-15T11:48:11.600Z,76.70
2023-01-15T11:49:11.579Z,78.25
2023-01-15T11:50:11.574Z,78.35
2023-01-15T11:51:11.584Z,77.32
2023-01-15T11:52:11.550Z,78.45
2023-01-15T11:53:11.516Z,76.60
2023-01-15T11:54:11.489Z,77.01
2023-01-15T11:55:11.474Z,76.50
2023-01-15T11:56:11.444Z,77.32
2023-01-15T11:57:11.461Z,78.25
2023-01-15T11:58:11.412Z,77.32
2023-01-15T11:59:11.405Z,76.29
2023-01-15T12:00:11.365Z,76.39
2023-01-15T12:01:11.378Z,77.01
2023-01-15T12:02:11.356Z,77.63
2023-01-15T12:03:11.315Z,78.39
2023-01-15T12:04:11.356Z,77.15
2023-01-15T12:05:11.280Z,77.01
2023-01-15T12:06:11.268Z,77.53
2023-01-15T12:07:11.265Z,76.70
2023-01-15T12:08:11.227Z,77.42
2023-01-15T12:09:11.205Z,78.35
2023-01-15T12:10:11.186Z,76.64
2023-01-15T12:11:25.842Z,78.05
2023-01-15T12:12:11.185Z,77.32
2023-01-15T12:13:11.132Z,76.50
2023-01-15T12:14:11.094Z,77.11
2023-01-15T12:15:11.140Z,77.01
2023-01-15T12:16:11.117Z,76.90
2023-01-15T12:17:11.047Z,76.67
2023-01-15T12:18:11.093Z,76.18
2023-01-15T12:19:11.062Z,77.42
2023-01-15T12:20:10.990Z,77.22
2023-01-15T12:21:11.214Z,77.94
2023-01-15T12:22:10.967Z,77.32
2023-01-15T12:23:10.930Z,77.91
2023-01-15T12:24:10.902Z,77.18
2023-01-15T12:25:10.886Z,77.91
2023-01-15T12:26:10.857Z,77.22
2023-01-15T12:27:10.851Z,77.42
2023-01-15T12:28:10.826Z,76.08
2023-01-15T12:29:10.813Z,77.32
2023-01-15T12:30:10.971Z,76.60
2023-01-15T12:31:11.098Z,76.56
2023-01-15T12:32:10.745Z,76.04
2023-01-15T12:33:10.751Z,76.67
2023-01-15T12:34:10.706Z,76.35
2023-01-15T12:35:10.697Z,77.18
2023-01-15T12:36:10.685Z,75.84
2023-01-15T12:37:10.697Z,75.63
2023-01-15T12:38:11.916Z,77.01
2023-01-15T12:39:10.609Z,75.46
2023-01-15T12:40:10.644Z,77.91
2023-01-15T12:41:10.573Z,77.32
2023-01-15T12:42:10.585Z,76.18
2023-01-15T12:43:10.529Z,78.56
2023-01-15T12:44:10.515Z,75.36
2023-01-15T12:45:10.510Z,75.98
2023-01-15T12:46:10.587Z,75.57
2023-01-15T12:47:10.493Z,76.18
2023-01-15T12:48:10.430Z,75.84
2023-01-15T12:49:10.411Z,74.40
2023-01-15T12:50:10.434Z,75.36
2023-01-15T12:51:10.374Z,75.43
2023-01-15T12:52:10.357Z,75.98